Time;durP1;ratioP1;P1;durP2;ratioP2;P2;SDS_P1;SDS_P2;PMS_P1;PMS_P2;Temp;Humidity;BMP_temperature;BMP_pressure;BME280_temperature;BME280_humidity;BME280_pressure;Samples;Min_cycle;Max_cycle;Signal;HPM_P1;HPM_P2
2022/07/13 00:01:53;;;;;;;1.55;1.08;;;18.50;76.10;;;;;;6201087;23;20573;-69
2022/07/13 00:04:18;;;;;;;1.10;1.00;;;18.50;76.00;;;;;;6202299;23;20001;-69
2022/07/13 00:06:44;;;;;;;1.48;1.10;;;18.40;76.20;;;;;;6202992;23;20048;-69
2022/07/13 00:09:10;;;;;;;1.35;0.82;;;18.40;76.60;;;;;;6214228;23;20013;-69
2022/07/13 00:11:36;;;;;;;1.00;0.90;;;18.40;76.80;;;;;;6214527;23;20439;-69
2022/07/13 00:14:02;;;;;;;1.02;0.95;;;18.30;77.30;;;;;;6204064;23;20138;-69
2022/07/13 00:16:27;;;;;;;7.03;1.45;;;18.30;77.50;;;;;;6213855;23;20052;-70
2022/07/13 00:18:53;;;;;;;1.50;1.00;;;18.30;77.40;;;;;;6214724;23;20009;-69
2022/07/13 00:21:19;;;;;;;1.27;1.17;;;18.30;77.20;;;;;;6206145;23;20000;-69
2022/07/13 00:23:45;;;;;;;1.33;1.05;;;18.30;77.40;;;;;;6216172;23;20043;-69
2022/07/13 00:26:11;;;;;;;1.08;0.85;;;18.30;77.50;;;;;;6206408;23;20008;-68
2022/07/13 00:28:37;;;;;;;1.88;1.27;;;18.30;78.00;;;;;;6215165;23;20386;-68
2022/07/13 00:31:03;;;;;;;1.30;1.20;;;18.30;78.00;;;;;;6216213;23;20070;-69
2022/07/13 00:33:29;;;;;;;2.15;1.13;;;18.30;77.70;;;;;;6216450;23;20503;-70
2022/07/13 00:35:55;;;;;;;1.35;1.25;;;18.40;77.80;;;;;;6215663;23;20005;-69
2022/07/13 00:38:21;;;;;;;1.17;1.08;;;18.40;77.50;;;;;;6215359;23;20015;-69
2022/07/13 00:40:47;;;;;;;3.38;1.30;;;18.50;77.20;;;;;;6216321;23;20008;-68
2022/07/13 00:43:13;;;;;;;1.05;0.98;;;18.50;77.20;;;;;;6206182;23;20008;-69
2022/07/13 00:45:39;;;;;;;2.13;1.25;;;18.50;77.30;;;;;;6215655;23;20399;-69
2022/07/13 00:48:05;;;;;;;0.95;0.95;;;18.50;77.10;;;;;;6215244;23;20016;-69
2022/07/13 00:50:31;;;;;;;1.67;1.17;;;18.60;76.90;;;;;;6201184;23;20017;-68
2022/07/13 00:52:57;;;;;;;1.83;1.05;;;18.60;76.80;;;;;;6200150;23;20513;-69
2022/07/13 00:55:25;;;;;;;2.00;1.35;;;18.60;77.00;;;;;;6200220;23;20095;-68
2022/07/13 00:57:52;;;;;;;1.65;1.23;;;18.70;77.00;;;;;;6199661;23;20008;-69
2022/07/13 01:00:18;;;;;;;1.25;1.10;;;18.70;76.90;;;;;;6175176;23;20013;-69
2022/07/13 01:02:46;;;;;;;1.83;1.13;;;18.70;77.00;;;;;;6200344;23;20506;-69
2022/07/13 01:05:14;;;;;;;1.52;1.08;;;18.70;76.40;;;;;;6201681;23;20430;-70
2022/07/13 01:07:40;;;;;;;1.13;1.05;;;18.70;76.30;;;;;;6199582;23;20644;-69
2022/07/13 01:10:09;;;;;;;3.35;1.27;;;18.80;77.10;;;;;;6199012;23;20019;-69
2022/07/13 01:12:36;;;;;;;2.53;1.40;;;18.80;76.30;;;;;;6199241;23;20023;-69
2022/07/13 01:15:04;;;;;;;1.10;1.00;;;18.80;76.30;;;;;;6199141;23;20035;-68
2022/07/13 01:17:31;;;;;;;2.25;1.00;;;18.80;76.30;;;;;;6210580;23;20413;-70
2022/07/13 01:19:58;;;;;;;1.30;1.20;;;18.80;76.60;;;;;;6201429;23;20457;-69
2022/07/13 01:22:29;;;;;;;1.38;1.17;;;18.90;76.60;;;;;;6200617;23;20024;-69
2022/07/13 01:24:56;;;;;;;1.23;1.10;;;18.90;76.70;;;;;;6199571;23;20038;-69
2022/07/13 01:27:22;;;;;;;1.10;1.00;;;18.90;76.20;;;;;;6208905;23;20068;-69
2022/07/13 01:29:47;;;;;;;0.73;0.73;;;18.90;76.60;;;;;;6201230;23;20017;-70
2022/07/13 01:32:13;;;;;;;0.90;0.90;;;18.90;76.10;;;;;;6199146;23;20626;-69
2022/07/13 01:34:39;;;;;;;3.05;1.33;;;18.90;75.80;;;;;;6211795;23;20670;-68
2022/07/13 01:37:08;;;;;;;2.28;1.10;;;18.90;75.70;;;;;;6198828;23;20008;-68
2022/07/13 01:39:34;;;;;;;1.20;1.10;;;18.90;75.80;;;;;;6199933;23;20082;-69
2022/07/13 01:42:00;;;;;;;1.35;0.90;;;18.90;75.90;;;;;;6199786;23;20009;-68
2022/07/13 01:44:26;;;;;;;1.77;1.10;;;18.90;76.20;;;;;;6199073;23;20450;-69
2022/07/13 01:46:53;;;;;;;1.40;1.30;;;18.90;76.30;;;;;;6210645;23;20005;-69
2022/07/13 01:49:20;;;;;;;1.20;1.08;;;18.90;76.20;;;;;;6198715;23;20013;-69
2022/07/13 01:51:45;;;;;;;1.30;1.20;;;18.90;76.20;;;;;;6201504;23;20016;-69
2022/07/13 01:54:13;;;;;;;1.27;1.05;;;18.90;76.00;;;;;;6199026;23;20012;-69
2022/07/13 01:56:39;;;;;;;1.77;1.17;;;18.90;75.70;;;;;;6199169;23;20023;-69
2022/07/13 01:59:04;;;;;;;4.45;1.27;;;18.90;76.20;;;;;;6199649;23;20537;-69
2022/07/13 02:01:30;;;;;;;1.30;1.00;;;18.90;76.40;;;;;;6199018;23;20122;-69
2022/07/13 02:03:56;;;;;;;1.67;1.10;;;18.90;76.40;;;;;;6199582;23;20632;-69
2022/07/13 02:06:22;;;;;;;1.70;1.10;;;18.90;76.70;;;;;;6198618;23;20009;-69
2022/07/13 02:08:48;;;;;;;1.25;1.10;;;18.90;77.10;;;;;;6199204;23;20016;-69
2022/07/13 02:11:18;;;;;;;1.20;1.10;;;18.90;76.80;;;;;;6198301;23;20019;-69
2022/07/13 02:13:45;;;;;;;1.38;1.27;;;19.00;76.60;;;;;;6198630;23;20792;-70
2022/07/13 02:16:13;;;;;;;1.60;1.10;;;19.00;76.80;;;;;;6198826;23;20055;-69
2022/07/13 02:18:39;;;;;;;1.20;1.10;;;19.00;76.90;;;;;;6197970;23;20021;-70
2022/07/13 02:21:05;;;;;;;1.38;1.05;;;19.00;77.10;;;;;;6210524;23;20442;-69
2022/07/13 02:23:31;;;;;;;1.20;1.10;;;19.00;77.00;;;;;;6198058;23;20005;-68
2022/07/13 02:25:57;;;;;;;1.42;1.30;;;19.00;76.80;;;;;;6199213;23;20751;-69
2022/07/13 02:28:23;;;;;;;1.45;1.10;;;19.00;76.90;;;;;;6199987;23;20066;-69
2022/07/13 02:30:50;;;;;;;1.20;1.10;;;19.00;76.70;;;;;;6198935;23;20039;-69
2022/07/13 02:33:15;;;;;;;1.50;1.40;;;19.00;76.60;;;;;;6199145;23;20016;-69
2022/07/13 02:35:43;;;;;;;1.30;1.17;;;19.00;76.60;;;;;;6198071;23;20012;-68
2022/07/13 02:38:09;;;;;;;1.30;1.20;;;19.00;76.80;;;;;;6198025;23;20019;-69
2022/07/13 02:40:35;;;;;;;1.60;1.10;;;19.00;76.70;;;;;;6198093;23;20004;-69
2022/07/13 02:43:01;;;;;;;1.58;1.20;;;19.00;76.60;;;;;;6197711;23;20023;-69
2022/07/13 02:45:27;;;;;;;1.23;1.13;;;19.00;76.50;;;;;;6210512;23;20687;-69
2022/07/13 02:47:55;;;;;;;1.52;1.00;;;19.00;76.80;;;;;;6198195;23;20036;-70
2022/07/13 02:50:21;;;;;;;1.55;1.17;;;19.00;77.00;;;;;;6198845;23;20346;-69
2022/07/13 02:52:46;;;;;;;1.55;1.10;;;19.00;76.50;;;;;;6198344;23;20651;-69
2022/07/13 02:55:12;;;;;;;1.73;1.10;;;19.00;76.30;;;;;;6198507;23;20100;-68
2022/07/13 02:57:40;;;;;;;1.20;1.10;;;19.00;76.70;;;;;;6196582;23;20074;-69
2022/07/13 03:00:08;;;;;;;1.55;1.10;;;19.00;77.20;;;;;;6197886;23;20091;-69
2022/07/13 03:02:34;;;;;;;1.90;1.00;;;19.00;77.10;;;;;;6209336;23;20604;-69
2022/07/13 03:05:00;;;;;;;1.70;1.27;;;19.00;77.30;;;;;;6197338;23;20087;-69
2022/07/13 03:07:26;;;;;;;1.63;1.30;;;19.00;77.20;;;;;;6197211;23;20039;-68
2022/07/13 03:09:52;;;;;;;1.88;1.05;;;19.00;77.50;;;;;;6199434;23;20043;-70
2022/07/13 03:12:18;;;;;;;1.40;1.25;;;19.00;77.50;;;;;;6197154;23;20023;-69
2022/07/13 03:14:44;;;;;;;1.40;1.17;;;19.00;77.80;;;;;;6197990;23;20359;-69
2022/07/13 03:17:10;;;;;;;1.58;1.10;;;19.00;77.70;;;;;;6197282;23;20091;-69
2022/07/13 03:19:36;;;;;;;1.27;1.17;;;19.00;77.60;;;;;;6172347;23;20091;-70
2022/07/13 03:22:03;;;;;;;1.10;1.00;;;19.00;77.70;;;;;;6197395;23;20078;-69
2022/07/13 03:24:30;;;;;;;1.75;1.10;;;19.00;77.70;;;;;;6197254;23;20063;-69
2022/07/13 03:26:55;;;;;;;2.67;1.08;;;19.00;77.50;;;;;;6207808;23;20001;-69
2022/07/13 03:29:22;;;;;;;1.88;1.30;;;19.10;77.90;;;;;;6195648;23;20047;-69
2022/07/13 03:31:48;;;;;;;1.48;1.38;;;19.10;77.80;;;;;;6196719;23;20100;-70
2022/07/13 03:34:15;;;;;;;0.95;0.95;;;19.10;77.70;;;;;;6197118;23;20024;-70
2022/07/13 03:36:42;;;;;;;1.40;1.30;;;19.00;77.30;;;;;;6196889;23;20015;-70
2022/07/13 03:39:07;;;;;;;1.08;0.93;;;19.00;77.30;;;;;;6197820;23;20016;-69
2022/07/13 03:41:33;;;;;;;2.35;1.30;;;19.10;77.70;;;;;;6209369;23;19996;-69
2022/07/13 03:44:00;;;;;;;1.20;1.10;;;19.10;78.10;;;;;;6198290;23;20016;-69
2022/07/13 03:46:26;;;;;;;2.28;1.20;;;19.10;78.30;;;;;;6198096;23;20804;-69
2022/07/13 03:48:52;;;;;;;1.25;1.15;;;19.10;78.30;;;;;;6196797;23;21047;-68
2022/07/13 03:51:18;;;;;;;2.55;1.40;;;19.20;78.30;;;;;;6197818;23;20039;-70
2022/07/13 03:53:44;;;;;;;2.40;1.20;;;19.20;78.40;;;;;;6198787;23;20357;-68
2022/07/13 03:56:11;;;;;;;1.25;1.13;;;19.20;78.40;;;;;;6199826;23;20016;-69
2022/07/13 03:58:37;;;;;;;1.20;1.10;;;19.20;78.30;;;;;;6211460;23;20016;-69
2022/07/13 04:01:03;;;;;;;1.83;1.30;;;19.20;78.10;;;;;;6199087;23;20012;-69
2022/07/13 04:03:29;;;;;;;1.30;1.20;;;19.20;77.70;;;;;;6198016;23;20008;-69
2022/07/13 04:05:55;;;;;;;1.33;1.23;;;19.20;77.90;;;;;;6198070;23;20004;-69
2022/07/13 04:08:21;;;;;;;1.35;1.20;;;19.30;78.00;;;;;;6198032;23;20012;-69
2022/07/13 04:10:47;;;;;;;1.40;1.30;;;19.30;77.60;;;;;;6197907;23;20632;-69
2022/07/13 04:13:15;;;;;;;1.33;1.15;;;19.30;77.20;;;;;;6198702;23;20021;-69
2022/07/13 04:15:40;;;;;;;1.40;1.30;;;19.30;77.60;;;;;;6200375;23;20605;-69
2022/07/13 04:18:07;;;;;;;1.65;1.30;;;19.30;77.80;;;;;;6198728;23;20008;-69
2022/07/13 04:20:33;;;;;;;1.85;1.30;;;19.30;78.10;;;;;;6199761;23;20032;-69
2022/07/13 04:23:00;;;;;;;2.60;1.10;;;19.30;77.90;;;;;;6210832;23;20028;-69
2022/07/13 04:25:27;;;;;;;1.38;1.27;;;19.30;77.50;;;;;;6198150;23;20016;-69
2022/07/13 04:27:55;;;;;;;1.25;1.15;;;19.40;77.20;;;;;;6197495;23;20362;-70
2022/07/13 04:30:21;;;;;;;1.20;1.10;;;19.40;77.30;;;;;;6197726;23;20008;-70
2022/07/13 04:32:47;;;;;;;1.17;1.08;;;19.40;77.20;;;;;;6198352;23;20086;-68
2022/07/13 04:35:16;;;;;;;0.90;0.90;;;19.50;77.30;;;;;;6198821;23;20013;-69
2022/07/13 04:37:45;;;;;;;1.42;1.27;;;19.50;77.40;;;;;;6198350;23;20688;-69
2022/07/13 04:40:11;;;;;;;1.02;0.98;;;19.50;77.80;;;;;;6198709;23;20160;-69
2022/07/13 04:42:37;;;;;;;1.58;1.45;;;19.50;78.20;;;;;;6200062;23;20510;-69
2022/07/13 04:45:04;;;;;;;1.40;1.30;;;19.60;78.00;;;;;;6173320;23;20027;-69
2022/07/13 04:47:31;;;;;;;2.05;1.50;;;19.60;78.10;;;;;;6197872;23;20151;-69
2022/07/13 04:49:57;;;;;;;1.63;1.50;;;19.60;78.40;;;;;;6198008;23;20713;-69
2022/07/13 04:52:24;;;;;;;1.52;1.30;;;19.70;78.40;;;;;;6197932;23;20019;-69
2022/07/13 04:54:50;;;;;;;1.45;1.35;;;19.70;78.90;;;;;;6198745;23;20055;-69
2022/07/13 04:57:16;;;;;;;1.40;1.17;;;19.70;78.60;;;;;;6197519;23;20017;-69
2022/07/13 04:59:42;;;;;;;1.50;1.40;;;19.70;78.20;;;;;;6198245;23;20013;-69
2022/07/13 05:02:08;;;;;;;1.50;1.40;;;19.80;78.10;;;;;;6198702;23;20035;-68
2022/07/13 05:04:35;;;;;;;1.30;1.20;;;19.80;78.20;;;;;;6198005;23;20020;-69
2022/07/13 05:07:00;;;;;;;1.40;1.30;;;19.90;77.90;;;;;;6197849;23;20083;-69
2022/07/13 05:09:27;;;;;;;2.25;1.38;;;19.90;77.70;;;;;;6198813;23;20012;-68
2022/07/13 05:11:55;;;;;;;1.98;1.40;;;19.90;77.40;;;;;;6198061;23;20019;-70
2022/07/13 05:14:21;;;;;;;1.45;1.30;;;19.90;78.00;;;;;;6198530;23;20009;-69
2022/07/13 05:16:47;;;;;;;1.90;1.60;;;20.00;78.40;;;;;;6198447;23;20015;-70
2022/07/13 05:19:13;;;;;;;1.60;1.50;;;20.10;79.10;;;;;;6197970;23;20091;-70
2022/07/13 05:21:41;;;;;;;1.92;1.70;;;20.10;78.30;;;;;;6198952;23;20718;-69
2022/07/13 05:24:07;;;;;;;2.17;1.50;;;20.10;78.10;;;;;;6198963;23;20036;-70
2022/07/13 05:26:33;;;;;;;1.35;1.25;;;20.20;77.40;;;;;;6198274;23;20008;-69
2022/07/13 05:28:58;;;;;;;3.10;1.63;;;20.30;76.50;;;;;;6210895;23;20011;-68
2022/07/13 05:31:26;;;;;;;2.88;1.58;;;20.40;75.90;;;;;;6198516;23;20039;-68
2022/07/13 05:33:52;;;;;;;3.08;1.58;;;20.50;75.60;;;;;;6198045;23;20171;-69
2022/07/13 05:36:25;;;;;;;1.35;1.25;;;20.50;75.90;;;;;;6198123;23;20021;-69
2022/07/13 05:38:50;;;;;;;3.88;1.80;;;20.50;76.50;;;;;;6198190;23;20849;-70
2022/07/13 05:41:16;;;;;;;1.83;1.73;;;20.60;76.70;;;;;;6196985;23;20454;-70
2022/07/13 05:43:42;;;;;;;2.72;1.52;;;20.60;76.60;;;;;;6198900;23;20015;-69
2022/07/13 05:46:10;;;;;;;1.42;1.30;;;20.70;76.40;;;;;;6198784;23;20019;-70
2022/07/13 05:48:36;;;;;;;2.72;1.75;;;20.70;76.40;;;;;;6197436;23;20092;-70
2022/07/13 05:51:02;;;;;;;2.67;1.30;;;20.80;76.10;;;;;;6198904;23;20016;-70
2022/07/13 05:53:28;;;;;;;1.77;1.52;;;20.80;75.80;;;;;;6198508;23;20086;-70
2022/07/13 05:55:56;;;;;;;4.32;1.48;;;20.90;75.70;;;;;;6198505;23;20004;-70
2022/07/13 05:58:22;;;;;;;2.17;1.33;;;20.90;76.10;;;;;;6200299;23;20421;-69
2022/07/13 06:00:48;;;;;;;2.80;1.15;;;21.00;76.20;;;;;;6200894;23;20495;-69
2022/07/13 06:03:14;;;;;;;1.50;1.40;;;21.00;76.30;;;;;;6210605;23;20084;-70
2022/07/13 06:05:39;;;;;;;3.00;1.90;;;21.10;76.50;;;;;;6199286;23;20020;-69
2022/07/13 06:08:05;;;;;;;1.90;1.60;;;21.10;75.80;;;;;;6209739;23;20494;-69
2022/07/13 06:10:31;;;;;;;1.92;1.70;;;21.20;75.20;;;;;;6207911;23;20058;-69
2022/07/13 06:12:57;;;;;;;3.13;1.75;;;21.20;75.80;;;;;;6199874;23;20026;-69
2022/07/13 06:15:23;;;;;;;2.60;1.50;;;21.30;74.10;;;;;;6199944;23;20004;-69
2022/07/13 06:17:48;;;;;;;1.50;1.25;;;21.40;74.00;;;;;;6199780;23;20054;-70
2022/07/13 06:20:14;;;;;;;1.33;1.23;;;21.40;74.00;;;;;;6199860;23;20115;-69
2022/07/13 06:22:40;;;;;;;1.50;1.40;;;21.50;74.00;;;;;;6210741;23;20072;-69
2022/07/13 06:25:06;;;;;;;1.45;1.30;;;21.60;73.90;;;;;;6209405;23;20009;-69
2022/07/13 06:27:32;;;;;;;2.80;1.42;;;21.70;73.20;;;;;;6198928;23;20008;-69
2022/07/13 06:29:58;;;;;;;1.38;1.27;;;21.70;72.40;;;;;;6199926;23;20095;-69
2022/07/13 06:32:23;;;;;;;1.65;1.52;;;21.80;72.60;;;;;;6199294;23;20414;-70
2022/07/13 06:34:49;;;;;;;1.40;1.30;;;21.90;72.50;;;;;;6210571;23;20008;-69
2022/07/13 06:37:15;;;;;;;1.40;1.27;;;22.00;73.10;;;;;;6209666;23;20018;-70
2022/07/13 06:39:41;;;;;;;2.67;1.50;;;22.10;71.90;;;;;;6199452;23;20018;-70
2022/07/13 06:42:06;;;;;;;2.42;1.50;;;22.20;71.00;;;;;;6200718;23;20121;-68
2022/07/13 06:44:32;;;;;;;2.25;1.65;;;22.30;70.30;;;;;;6210260;23;20689;-70
2022/07/13 06:46:59;;;;;;;1.75;1.50;;;22.40;70.40;;;;;;6199724;23;20009;-69
2022/07/13 06:49:26;;;;;;;1.30;1.08;;;22.50;70.40;;;;;;6199324;23;20091;-69
2022/07/13 06:51:55;;;;;;;1.48;1.38;;;22.50;69.80;;;;;;6199936;23;20047;-69
2022/07/13 06:54:20;;;;;;;1.30;1.20;;;22.50;70.10;;;;;;6198876;23;20129;-69
2022/07/13 06:56:46;;;;;;;1.60;1.50;;;22.60;70.10;;;;;;6199139;23;20016;-69
2022/07/13 06:59:12;;;;;;;1.58;1.25;;;22.70;70.10;;;;;;6199389;23;20104;-69
2022/07/13 07:01:38;;;;;;;1.42;1.30;;;22.70;69.40;;;;;;6199365;23;20540;-69
2022/07/13 07:04:04;;;;;;;3.50;1.60;;;22.70;69.10;;;;;;6199465;23;20663;-69
2022/07/13 07:06:30;;;;;;;9.18;3.63;;;22.80;69.10;;;;;;6198496;23;20027;-71
2022/07/13 07:08:58;;;;;;;6.18;2.15;;;22.90;72.40;;;;;;6198945;23;20012;-73
2022/07/13 07:11:24;;;;;;;3.30;1.77;;;23.00;70.60;;;;;;6198691;23;20783;-73
2022/07/13 07:13:50;;;;;;;5.63;2.65;;;23.20;69.50;;;;;;6209173;23;20017;-73
2022/07/13 07:16:16;;;;;;;6.32;3.15;;;23.30;68.60;;;;;;6197464;23;20027;-73
2022/07/13 07:18:41;;;;;;;4.18;2.40;;;23.50;67.40;;;;;;6198978;23;20024;-74
2022/07/13 07:21:07;;;;;;;3.92;2.88;;;23.70;66.00;;;;;;6199688;23;20104;-75
2022/07/13 07:23:33;;;;;;;9.50;2.97;;;23.80;65.90;;;;;;6209064;23;20000;-71
2022/07/13 07:25:59;;;;;;;3.17;2.80;;;23.80;65.40;;;;;;6200514;23;20070;-78
2022/07/13 07:28:24;;;;;;;4.25;2.33;;;23.90;66.00;;;;;;6211917;23;20460;-75
2022/07/13 07:30:51;;;;;;;3.72;1.95;;;24.00;65.20;;;;;;6212960;23;20011;-75
2022/07/13 07:33:17;;;;;;;2.30;1.80;;;24.10;64.60;;;;;;6203019;23;20008;-73
2022/07/13 07:35:43;;;;;;;6.07;3.30;;;24.10;64.60;;;;;;6202891;23;20331;-75
2022/07/13 07:38:09;;;;;;;3.53;2.90;;;24.10;65.30;;;;;;6202211;23;20810;-73
2022/07/13 07:40:35;;;;;;;3.97;2.60;;;24.10;64.30;;;;;;6203264;23;20012;-75
2022/07/13 07:43:01;;;;;;;4.47;2.30;;;24.10;64.00;;;;;;6203729;23;20035;-75
2022/07/13 07:45:27;;;;;;;3.50;1.70;;;24.10;64.20;;;;;;6200855;23;20008;-74
2022/07/13 07:47:53;;;;;;;2.40;2.17;;;24.30;64.40;;;;;;6213305;23;20005;-76
2022/07/13 07:50:19;;;;;;;2.55;1.92;;;24.30;63.40;;;;;;6202819;23;20022;-73
2022/07/13 07:52:45;;;;;;;2.03;1.83;;;24.50;63.00;;;;;;6203103;23;20017;-71
2022/07/13 07:55:11;;;;;;;3.45;1.60;;;24.60;62.20;;;;;;6211076;23;20498;-73
2022/07/13 07:57:47;;;;;;;1.27;1.17;;;24.80;61.60;;;;;;6201106;23;20004;-73
2022/07/13 08:00:13;;;;;;;7.18;1.75;;;24.80;62.00;;;;;;6201752;23;20017;-73
2022/07/13 08:02:40;;;;;;;5.18;1.75;;;24.90;59.90;;;;;;6202804;23;20090;-73
2022/07/13 08:05:07;;;;;;;2.65;1.63;;;24.80;59.90;;;;;;6212751;23;20001;-73
2022/07/13 08:07:32;;;;;;;2.10;1.58;;;25.00;60.40;;;;;;6211342;23;20021;-72
2022/07/13 08:09:58;;;;;;;2.50;1.70;;;25.00;59.50;;;;;;6203317;23;20594;-72
2022/07/13 08:12:24;;;;;;;2.05;1.85;;;25.00;59.40;;;;;;6202472;23;20456;-73
2022/07/13 08:14:49;;;;;;;1.70;1.60;;;25.00;60.10;;;;;;6202257;23;20039;-72
2022/07/13 08:17:15;;;;;;;1.65;1.50;;;25.10;59.60;;;;;;6201700;23;20040;-71
2022/07/13 08:19:41;;;;;;;1.67;1.55;;;25.10;59.40;;;;;;6212721;23;20074;-72
2022/07/13 08:22:07;;;;;;;3.53;1.58;;;25.20;59.10;;;;;;6211907;23;20103;-72
2022/07/13 08:24:32;;;;;;;3.28;1.58;;;25.30;59.00;;;;;;6200064;23;20093;-72
2022/07/13 08:26:58;;;;;;;2.20;1.50;;;25.50;58.00;;;;;;6201099;23;20009;-71
2022/07/13 08:29:24;;;;;;;2.53;1.38;;;25.60;57.50;;;;;;6210750;23;20036;-72
2022/07/13 08:31:50;;;;;;;1.98;1.80;;;25.70;57.90;;;;;;6211080;23;20005;-71
2022/07/13 08:39:44;;;;;;;1.63;1.52;;;25.90;56.20;;;;;;6200200;23;20436;-72
2022/07/13 08:42:13;;;;;;;2.83;1.52;;;25.80;55.80;;;;;;6199797;23;20091;-72
2022/07/13 08:44:39;;;;;;;2.33;1.50;;;25.80;56.10;;;;;;6200466;23;20798;-73
2022/07/13 08:47:09;;;;;;;1.60;1.50;;;25.80;56.50;;;;;;6200499;23;20091;-71
2022/07/13 08:49:35;;;;;;;2.30;1.60;;;26.00;55.30;;;;;;6210920;23;20462;-72
2022/07/13 08:52:02;;;;;;;3.55;1.10;;;26.00;55.20;;;;;;6210338;23;20028;-73
2022/07/13 08:54:29;;;;;;;2.20;1.20;;;26.00;55.20;;;;;;6200480;23;20017;-72
2022/07/13 08:56:56;;;;;;;1.63;1.48;;;26.20;55.20;;;;;;6200329;23;20028;-75
2022/07/13 08:59:21;;;;;;;1.20;1.10;;;26.30;55.50;;;;;;6200659;23;20017;-76
2022/07/13 09:01:49;;;;;;;1.30;1.20;;;26.50;55.20;;;;;;6201465;23;20684;-76
2022/07/13 09:04:15;;;;;;;2.20;1.25;;;26.60;55.20;;;;;;6200695;23;20063;-75
2022/07/13 09:06:45;;;;;;;5.85;4.10;;;26.70;54.20;;;;;;6198378;23;20012;-75
2022/07/13 09:09:33;;;;;;;5.55;4.40;;;26.70;54.40;;;;;;6201053;23;20023;-75
2022/07/13 09:12:28;;;;;;;4.70;3.50;;;26.80;54.60;;;;;;6211230;23;20381;-75
2022/07/13 09:15:06;;;;;;;10.88;7.20;;;26.90;54.20;;;;;;6210431;23;20008;-75
2022/07/13 09:17:43;;;;;;;6.97;4.90;;;27.00;53.90;;;;;;6200635;23;20116;-75
2022/07/13 09:20:12;;;;;;;7.95;6.00;;;27.10;53.60;;;;;;6210987;23;20066;-75
2022/07/13 09:22:54;;;;;;;9.80;6.30;;;27.00;53.30;;;;;;6198545;23;20013;-75
2022/07/13 09:25:40;;;;;;;3.33;2.55;;;27.00;53.70;;;;;;6200454;23;20040;-75
2022/07/13 09:28:16;;;;;;;4.07;2.90;;;26.90;54.10;;;;;;6210444;23;20009;-75
2022/07/13 09:30:43;;;;;;;3.55;2.40;;;27.00;53.80;;;;;;6200515;23;20066;-78
2022/07/13 09:33:10;;;;;;;2.70;1.70;;;26.90;53.70;;;;;;6210538;23;20008;-76
2022/07/13 09:35:51;;;;;;;1.05;0.98;;;26.90;54.30;;;;;;6200613;23;20008;-77
2022/07/13 09:38:28;;;;;;;2.10;1.58;;;26.80;54.00;;;;;;6199419;23;20009;-76
2022/07/13 09:40:55;;;;;;;2.88;1.48;;;27.00;54.50;;;;;;6210024;23;20229;-76
2022/07/13 09:46:10;;;;;;;3.25;2.17;;;27.20;53.40;;;;;;6200095;23;20070;-77
2022/07/13 09:48:37;;;;;;;4.70;3.28;;;27.40;54.40;;;;;;6200017;23;20347;-77
2022/07/13 09:51:03;;;;;;;3.58;2.60;;;27.60;53.50;;;;;;6199774;23;20043;-76
2022/07/13 09:53:31;;;;;;;3.50;2.05;;;27.70;52.80;;;;;;6199848;23;20024;-77
2022/07/13 09:56:04;;;;;;;2.35;1.83;;;27.90;52.80;;;;;;6200634;23;20147;-73
2022/07/13 09:58:34;;;;;;;2.00;0.98;;;27.90;52.80;;;;;;6199380;23;20217;-73
2022/07/13 10:01:02;;;;;;;1.35;0.80;;;28.00;53.30;;;;;;6200413;23;20032;-73
2022/07/13 10:03:29;;;;;;;1.83;1.67;;;28.10;50.80;;;;;;6200005;23;20098;-74
2022/07/13 10:05:56;;;;;;;3.13;2.17;;;28.20;51.90;;;;;;6199272;23;20009;-74
2022/07/13 10:08:22;;;;;;;5.65;2.67;;;28.30;51.10;;;;;;6209302;23;20064;-73
2022/07/13 10:10:49;;;;;;;2.90;1.60;;;28.40;50.80;;;;;;6199839;23;20004;-74
2022/07/13 10:13:16;;;;;;;3.85;1.90;;;28.40;50.20;;;;;;6199464;23;20100;-73
2022/07/13 10:15:43;;;;;;;1.77;1.40;;;28.50;51.30;;;;;;6199557;23;20433;-74
2022/07/13 10:18:12;;;;;;;1.30;1.15;;;28.50;51.10;;;;;;6198983;23;20012;-70
2022/07/13 10:20:42;;;;;;;3.03;1.40;;;28.50;51.00;;;;;;6199171;23;20070;-73
2022/07/13 10:23:09;;;;;;;1.67;1.50;;;28.50;50.70;;;;;;6209909;23;20004;-73
2022/07/13 10:25:43;;;;;;;2.35;1.15;;;28.60;50.20;;;;;;6199299;23;20520;-73
2022/07/13 10:28:09;;;;;;;2.28;1.27;;;28.60;50.20;;;;;;6196833;23;20012;-74
2022/07/13 10:30:36;;;;;;;6.93;5.35;;;28.60;49.50;;;;;;6199133;23;20058;-73
2022/07/13 10:33:22;;;;;;;3.20;1.65;;;28.60;49.80;;;;;;6199025;23;20016;-73
2022/07/13 10:35:50;;;;;;;2.88;1.23;;;28.60;50.90;;;;;;6208603;23;20490;-73
2022/07/13 10:38:18;;;;;;;3.45;2.03;;;28.80;50.20;;;;;;6208366;23;20323;-73
2022/07/13 10:40:44;;;;;;;6.03;1.40;;;29.00;48.20;;;;;;6209232;23;20038;-75
2022/07/13 10:43:11;;;;;;;1.75;1.17;;;29.10;48.20;;;;;;6198470;23;20088;-73
2022/07/13 10:45:38;;;;;;;2.20;0.82;;;29.10;48.10;;;;;;6198711;23;20115;-75
2022/07/13 10:48:17;;;;;;;1.70;1.40;;;29.10;48.60;;;;;;6198585;23;20000;-72
2022/07/13 10:50:47;;;;;;;1.77;1.13;;;29.10;48.80;;;;;;6209500;23;20012;-72
2022/07/13 10:53:16;;;;;;;3.20;1.08;;;29.00;46.80;;;;;;6209719;23;20074;-71
2022/07/13 10:55:49;;;;;;;1.63;1.27;;;28.90;47.30;;;;;;6198884;23;20009;-72
2022/07/13 10:58:39;;;;;;;0.88;0.88;;;28.90;46.20;;;;;;6196315;23;20009;-71
2022/07/13 11:01:36;;;;;;;1.33;1.20;;;28.90;46.70;;;;;;6199681;23;20012;-72
2022/07/13 11:04:06;;;;;;;2.40;1.00;;;28.90;47.80;;;;;;6198745;23;20020;-73
2022/07/13 11:06:33;;;;;;;2.78;1.15;;;28.80;48.80;;;;;;6198454;23;20005;-73
2022/07/13 11:09:20;;;;;;;3.80;1.20;;;28.90;48.50;;;;;;6209733;23;20023;-73
2022/07/13 11:11:51;;;;;;;1.25;1.02;;;28.80;48.50;;;;;;6199660;23;20016;-71
2022/07/13 11:14:35;;;;;;;1.25;0.90;;;28.80;47.60;;;;;;6198697;23;20012;-72
2022/07/13 11:17:23;;;;;;;1.27;0.93;;;28.90;48.70;;;;;;6208675;23;20004;-72
2022/07/13 11:19:53;;;;;;;1.05;0.80;;;28.80;44.80;;;;;;6196684;23;20004;-72
2022/07/13 11:22:20;;;;;;;1.60;1.08;;;28.90;43.60;;;;;;6198267;23;20051;-73
2022/07/13 11:25:15;;;;;;;4.53;0.98;;;28.90;43.00;;;;;;6208969;23;20004;-72
2022/07/13 11:28:01;;;;;;;0.90;0.85;;;28.90;43.50;;;;;;6206689;23;20086;-73
2022/07/13 11:30:31;;;;;;;;;;;28.90;44.20;;;;;;6192493;23;20005;-73
2022/07/13 11:32:58;;;;;;;2.38;1.48;;;29.00;44.60;;;;;;6198140;23;19904;-73
2022/07/13 11:35:24;;;;;;;3.50;1.10;;;29.00;43.50;;;;;;6198567;23;20009;-74
2022/07/13 11:37:51;;;;;;;1.35;1.00;;;29.00;43.90;;;;;;6198227;23;20104;-73
2022/07/13 11:40:30;;;;;;;2.97;1.10;;;29.00;43.90;;;;;;6198495;23;20022;-73
2022/07/13 11:43:00;;;;;;;4.07;1.02;;;29.10;43.70;;;;;;6198306;23;20821;-72
2022/07/13 11:45:32;;;;;;;1.80;0.90;;;29.20;44.10;;;;;;6197850;23;20015;-72
2022/07/13 11:48:04;;;;;;;2.47;1.10;;;29.30;43.70;;;;;;6197790;23;20008;-72
2022/07/13 11:50:48;;;;;;;2.70;1.10;;;29.40;43.50;;;;;;6207805;23;20123;-73
2022/07/13 11:53:40;;;;;;;2.00;1.00;;;29.50;42.00;;;;;;6198028;23;20016;-72
2022/07/13 11:56:08;;;;;;;3.60;1.00;;;29.60;42.70;;;;;;6195913;23;20037;-73
2022/07/13 11:58:39;;;;;;;5.70;1.10;;;29.70;43.60;;;;;;6197547;23;20009;-73
2022/07/13 12:01:12;;;;;;;1.90;1.08;;;29.70;43.00;;;;;;6198086;23;20023;-73
2022/07/13 12:03:39;;;;;;;1.98;0.90;;;29.60;43.00;;;;;;6197729;23;20012;-73
2022/07/13 12:06:14;;;;;;;1.95;0.80;;;29.60;42.00;;;;;;6197683;23;20780;-72
2022/07/13 12:08:42;;;;;;;1.33;0.98;;;29.50;40.60;;;;;;6207426;23;20012;-74
2022/07/13 12:11:12;;;;;;;2.45;0.98;;;29.60;41.50;;;;;;6208614;23;20008;-72
2022/07/13 12:13:40;;;;;;;0.98;0.80;;;29.60;42.50;;;;;;6197657;23;20071;-72
2022/07/13 12:16:10;;;;;;;0.88;0.80;;;29.60;41.60;;;;;;6200478;23;20013;-72
2022/07/13 12:18:58;;;;;;;2.80;1.58;;;29.50;40.80;;;;;;6199567;23;20018;-72
2022/07/13 12:21:24;;;;;;;1.63;1.30;;;29.50;42.20;;;;;;6200678;23;20013;-72
2022/07/13 12:23:50;;;;;;;1.05;1.00;;;29.50;43.40;;;;;;6200315;23;20015;-70
2022/07/13 12:26:16;;;;;;;1.05;0.93;;;29.50;42.30;;;;;;6200527;23;20009;-74
2022/07/13 12:28:42;;;;;;;0.98;0.90;;;29.40;42.40;;;;;;6199777;23;20012;-74
2022/07/13 12:31:09;;;;;;;1.92;1.10;;;29.40;43.00;;;;;;6201978;23;20016;-74
2022/07/13 12:33:53;;;;;;;1.00;0.90;;;29.40;42.60;;;;;;6200590;23;20115;-74
2022/07/13 12:36:22;;;;;;;1.63;0.95;;;29.40;42.80;;;;;;6200022;23;20020;-74
2022/07/13 12:38:55;;;;;;;0.95;0.65;;;29.40;42.30;;;;;;6200480;23;20012;-74
2022/07/13 12:41:27;;;;;;;2.33;0.98;;;29.40;41.40;;;;;;6199350;23;20005;-74
2022/07/13 12:43:58;;;;;;;2.08;0.90;;;29.50;42.50;;;;;;6199293;23;20044;-74
2022/07/13 12:46:25;;;;;;;0.80;0.80;;;29.60;41.40;;;;;;6209149;23;20005;-74
2022/07/13 12:49:02;;;;;;;1.55;1.20;;;29.60;41.40;;;;;;6209156;23;20036;-74
2022/07/13 12:51:45;;;;;;;0.93;0.90;;;29.70;42.10;;;;;;6199241;23;20218;-74
2022/07/13 12:54:12;;;;;;;0.70;0.70;;;29.80;41.90;;;;;;6199830;23;20024;-74
2022/07/13 12:56:52;;;;;;;1.10;1.00;;;29.80;41.90;;;;;;6208058;23;20013;-74
2022/07/13 12:59:20;;;;;;;4.32;0.80;;;29.90;41.30;;;;;;6197185;23;20115;-74
2022/07/13 13:01:48;;;;;;;2.80;0.80;;;30.00;41.30;;;;;;6199766;23;20342;-74